createdAt,value
2017-12-17T00:00:05.499Z,18.10
2017-12-17T00:02:33.764Z,15.93
2017-12-17T00:05:01.443Z,21.00
2017-12-17T00:07:29.668Z,15.63
2017-12-17T00:09:57.155Z,16.33
2017-12-17T00:12:24.631Z,14.93
2017-12-17T00:14:52.880Z,18.30
2017-12-17T00:17:20.354Z,19.47
2017-12-17T00:19:48.592Z,16.73
2017-12-17T00:22:16.136Z,15.87
2017-12-17T00:24:43.608Z,16.90
2017-12-17T00:27:11.178Z,15.50
2017-12-17T00:29:38.657Z,17.27
2017-12-17T00:32:06.879Z,15.70
2017-12-17T00:34:34.376Z,17.30
2017-12-17T00:37:01.831Z,14.63
2017-12-17T00:39:31.129Z,16.60
2017-12-17T00:41:58.613Z,14.73
2017-12-17T00:44:26.091Z,17.80
2017-12-17T00:46:53.553Z,15.80
2017-12-17T00:49:21.030Z,16.87
2017-12-17T00:51:48.487Z,17.70
2017-12-17T00:54:15.974Z,17.23
2017-12-17T00:56:44.213Z,19.43
2017-12-17T00:59:11.785Z,20.63
2017-12-17T01:01:39.280Z,21.03
2017-12-17T01:04:06.781Z,18.83
2017-12-17T01:06:34.240Z,19.90
2017-12-17T01:09:01.725Z,21.47
2017-12-17T01:11:29.998Z,17.33
2017-12-17T01:13:57.470Z,20.60
2017-12-17T01:16:25.706Z,20.10
2017-12-17T01:18:53.207Z,20.10
2017-12-17T01:21:20.673Z,19.53
2017-12-17T01:23:48.150Z,17.00
2017-12-17T01:26:15.602Z,19.43
2017-12-17T01:28:43.083Z,18.00
2017-12-17T01:31:10.619Z,17.00
2017-12-17T01:33:38.108Z,17.63
2017-12-17T01:36:05.655Z,19.07
2017-12-17T01:38:33.134Z,18.03
2017-12-17T01:41:00.612Z,18.60
2017-12-17T01:43:28.081Z,17.60
2017-12-17T01:45:55.566Z,16.90
2017-12-17T01:48:23.028Z,17.70
2017-12-17T01:50:50.510Z,18.20
2017-12-17T01:53:18.008Z,15.00
2017-12-17T01:55:45.466Z,19.00
2017-12-17T01:58:12.934Z,16.40
2017-12-17T02:00:40.401Z,15.97
2017-12-17T02:03:07.879Z,16.23
2017-12-17T02:05:35.423Z,14.93
2017-12-17T02:08:02.885Z,16.40
2017-12-17T02:10:30.360Z,16.30
2017-12-17T02:12:58.603Z,14.00
2017-12-17T02:15:26.073Z,18.63
2017-12-17T02:17:53.546Z,16.87
2017-12-17T02:20:21.022Z,15.40
2017-12-17T02:22:49.292Z,13.23
2017-12-17T02:25:17.563Z,16.37
2017-12-17T02:27:45.779Z,14.90
2017-12-17T02:30:13.295Z,18.40
2017-12-17T02:32:40.785Z,18.03
2017-12-17T02:35:08.257Z,16.03
2017-12-17T02:37:35.863Z,17.63
2017-12-17T02:40:04.084Z,13.20
2017-12-17T02:42:31.556Z,19.23
2017-12-17T02:44:59.041Z,13.37
2017-12-17T02:47:27.263Z,15.13
2017-12-17T02:49:54.752Z,18.23
2017-12-17T02:52:22.340Z,14.80
2017-12-17T02:54:50.585Z,13.97
2017-12-17T02:57:18.057Z,18.57
2017-12-17T02:59:45.537Z,13.93
2017-12-17T03:02:13.016Z,13.57
2017-12-17T03:04:40.521Z,16.20
2017-12-17T03:07:07.986Z,15.30
2017-12-17T03:09:36.225Z,15.40
2017-12-17T03:12:03.685Z,17.80
2017-12-17T03:14:31.265Z,13.33
2017-12-17T03:16:59.577Z,15.60
2017-12-17T03:19:27.055Z,14.23
2017-12-17T03:21:54.516Z,16.83
2017-12-17T03:24:22.050Z,14.97
2017-12-17T03:26:49.527Z,15.03
2017-12-17T03:29:16.989Z,13.80
2017-12-17T03:31:44.464Z,12.30
2017-12-17T03:34:12.024Z,14.00
2017-12-17T03:36:39.593Z,14.53
2017-12-17T03:39:07.170Z,12.67
2017-12-17T03:41:34.719Z,15.23
2017-12-17T03:44:02.175Z,13.60
2017-12-17T03:46:30.391Z,14.93
2017-12-17T03:48:57.880Z,12.60
2017-12-17T03:51:25.343Z,14.00
2017-12-17T03:53:55.340Z,13.17
2017-12-17T03:56:22.834Z,13.27
2017-12-17T03:58:50.283Z,15.70
2017-12-17T04:01:18.537Z,12.97
2017-12-17T04:03:46.008Z,14.93
2017-12-17T04:06:13.513Z,15.53
2017-12-17T04:08:40.988Z,17.03
2017-12-17T04:11:08.596Z,13.60
2017-12-17T04:13:36.849Z,16.03
2017-12-17T04:16:04.352Z,16.10
2017-12-17T04:18:31.838Z,15.40
2017-12-17T04:20:59.323Z,15.17
2017-12-17T04:23:26.888Z,14.13
2017-12-17T04:25:55.121Z,14.43
2017-12-17T04:28:22.709Z,15.03
2017-12-17T04:30:50.163Z,15.30
2017-12-17T04:33:17.628Z,15.90
2017-12-17T04:35:45.943Z,16.07
2017-12-17T04:38:13.400Z,13.83
2017-12-17T04:40:40.880Z,15.07
2017-12-17T04:43:08.344Z,13.70
2017-12-17T04:45:35.831Z,14.20
2017-12-17T04:48:04.072Z,16.03
2017-12-17T04:50:31.658Z,14.40
2017-12-17T04:52:59.908Z,14.60
2017-12-17T04:55:27.366Z,16.70
2017-12-17T04:57:54.862Z,16.30
2017-12-17T05:00:23.107Z,14.33
2017-12-17T05:02:50.576Z,15.40
2017-12-17T05:05:18.829Z,14.80
2017-12-17T05:07:46.293Z,16.03
2017-12-17T05:10:13.756Z,14.90
2017-12-17T05:12:41.237Z,17.10
2017-12-17T05:15:08.719Z,18.60
2017-12-17T05:17:36.217Z,15.43
2017-12-17T05:20:03.677Z,14.80
2017-12-17T05:22:31.140Z,15.40
2017-12-17T05:24:59.409Z,17.13
2017-12-17T05:27:26.982Z,17.63
2017-12-17T05:29:55.445Z,16.13
2017-12-17T05:32:23.690Z,18.87
2017-12-17T05:34:51.148Z,19.33
2017-12-17T05:37:19.562Z,15.37
2017-12-17T05:39:47.820Z,15.90
2017-12-17T05:42:15.296Z,15.60
2017-12-17T05:44:43.550Z,18.23
2017-12-17T05:47:11.140Z,16.40
2017-12-17T05:49:39.368Z,17.33
2017-12-17T05:52:06.849Z,14.23
2017-12-17T05:54:35.081Z,16.40
2017-12-17T05:57:02.578Z,15.50
2017-12-17T05:59:30.041Z,15.90
2017-12-17T06:01:58.275Z,15.60
2017-12-17T06:04:25.764Z,19.73
2017-12-17T06:06:53.316Z,16.00
2017-12-17T06:09:20.808Z,17.50
2017-12-17T06:11:48.288Z,16.10
2017-12-17T06:14:15.761Z,13.43
2017-12-17T06:16:43.337Z,16.30
2017-12-17T06:19:10.831Z,16.37
2017-12-17T06:21:38.302Z,17.60
2017-12-17T06:24:05.765Z,14.60
2017-12-17T06:26:33.275Z,14.73
2017-12-17T06:29:01.545Z,16.73
2017-12-17T06:31:29.104Z,16.60
2017-12-17T06:33:56.570Z,14.17
2017-12-17T06:36:24.819Z,14.63
2017-12-17T06:38:52.305Z,17.43
2017-12-17T06:41:20.561Z,16.90
2017-12-17T06:43:48.015Z,13.10
2017-12-17T06:46:15.591Z,15.23
2017-12-17T06:48:43.967Z,14.73
2017-12-17T06:51:12.209Z,15.93
2017-12-17T06:53:39.699Z,12.73
2017-12-17T06:56:07.948Z,11.47
2017-12-17T06:58:35.401Z,12.50
2017-12-17T07:01:02.865Z,14.97
2017-12-17T07:03:30.377Z,15.03
2017-12-17T07:05:58.706Z,16.20
2017-12-17T07:08:27.087Z,14.20
2017-12-17T07:10:55.356Z,11.93
2017-12-17T07:13:23.631Z,11.93
2017-12-17T07:15:51.877Z,12.27
2017-12-17T07:18:19.367Z,13.23
2017-12-17T07:20:47.603Z,12.43
2017-12-17T07:23:15.091Z,13.93
2017-12-17T07:25:42.582Z,11.40
2017-12-17T07:28:10.102Z,13.93
2017-12-17T07:30:37.752Z,12.80
2017-12-17T07:33:05.295Z,13.63
2017-12-17T07:35:32.776Z,11.97
2017-12-17T07:38:01.053Z,11.63
2017-12-17T07:40:28.531Z,11.30
2017-12-17T07:42:55.993Z,10.00
2017-12-17T07:45:23.457Z,11.80
2017-12-17T07:47:50.985Z,10.33
2017-12-17T07:50:19.309Z,13.27
2017-12-17T07:52:46.784Z,11.67
2017-12-17T07:55:14.255Z,11.77
2017-12-17T07:57:41.721Z,11.60
2017-12-17T08:00:10.115Z,11.90
2017-12-17T08:02:38.349Z,14.63
2017-12-17T08:05:05.832Z,11.40
2017-12-17T08:07:33.369Z,11.17
2017-12-17T08:10:00.837Z,11.87
2017-12-17T08:12:28.801Z,12.27
2017-12-17T08:14:56.238Z,12.50
2017-12-17T08:17:23.775Z,11.90
2017-12-17T08:19:51.241Z,13.80
2017-12-17T08:22:18.729Z,12.90
2017-12-17T08:24:46.233Z,10.70
2017-12-17T08:27:13.725Z,10.87
2017-12-17T08:29:41.196Z,11.70
2017-12-17T08:32:08.682Z,10.43
2017-12-17T08:34:36.143Z,12.03
2017-12-17T08:37:03.645Z,12.27
2017-12-17T08:39:31.131Z,11.53
2017-12-17T08:41:59.364Z,10.37
2017-12-17T08:44:26.828Z,12.93
2017-12-17T08:46:54.412Z,15.33
2017-12-17T08:49:22.787Z,11.47
2017-12-17T08:51:50.275Z,10.60
2017-12-17T08:54:17.755Z,10.80
2017-12-17T08:56:45.203Z,10.27
2017-12-17T08:59:12.665Z,10.60
2017-12-17T09:01:40.155Z,10.47
2017-12-17T09:04:07.615Z,9.80
2017-12-17T09:06:35.074Z,10.63
2017-12-17T09:09:02.555Z,11.10
2017-12-17T09:11:30.782Z,11.40
2017-12-17T09:13:58.360Z,11.90
2017-12-17T09:16:25.815Z,9.57
2017-12-17T09:18:53.290Z,9.20
2017-12-17T09:21:21.561Z,10.63
2017-12-17T09:23:49.787Z,8.70
2017-12-17T09:26:17.259Z,8.70
2017-12-17T09:28:44.777Z,8.57
2017-12-17T09:31:12.268Z,8.13
2017-12-17T09:33:39.719Z,7.90
2017-12-17T09:36:07.202Z,8.60
2017-12-17T09:38:34.685Z,9.30
2017-12-17T09:41:02.894Z,9.17
2017-12-17T09:43:30.365Z,11.10
2017-12-17T09:45:57.839Z,7.30
2017-12-17T09:48:25.301Z,8.47
2017-12-17T09:50:52.804Z,9.40
2017-12-17T09:53:20.263Z,8.10
2017-12-17T09:55:47.721Z,7.93
2017-12-17T09:58:15.189Z,8.67
2017-12-17T10:00:42.626Z,7.87
2017-12-17T10:03:10.100Z,8.97
2017-12-17T10:05:37.546Z,8.83
2017-12-17T10:08:05.011Z,9.00
2017-12-17T10:10:32.492Z,8.40
2017-12-17T10:12:59.935Z,8.40
2017-12-17T10:15:27.402Z,7.93
2017-12-17T10:17:54.873Z,8.50
2017-12-17T10:20:22.363Z,7.97
2017-12-17T10:22:50.032Z,6.97
2017-12-17T10:25:17.547Z,7.30
2017-12-17T10:27:45.801Z,7.80
2017-12-17T10:30:13.257Z,8.40
2017-12-17T10:32:40.710Z,8.97
2017-12-17T10:35:08.178Z,7.67
2017-12-17T10:37:35.765Z,9.83
2017-12-17T10:40:03.994Z,7.67
2017-12-17T10:42:31.458Z,7.33
2017-12-17T10:44:58.921Z,7.97
2017-12-17T10:47:27.163Z,8.63
2017-12-17T10:49:54.624Z,7.80
2017-12-17T10:52:22.164Z,10.50
2017-12-17T10:54:49.644Z,8.70
2017-12-17T10:57:17.911Z,8.43
2017-12-17T10:59:45.398Z,8.67
2017-12-17T11:02:12.983Z,10.27
2017-12-17T11:04:40.472Z,9.13
2017-12-17T11:07:07.932Z,10.47
2017-12-17T11:09:35.379Z,9.90
2017-12-17T11:12:02.976Z,9.50
2017-12-17T11:14:30.506Z,10.00
2017-12-17T11:16:57.953Z,8.43
2017-12-17T11:19:25.457Z,10.27
2017-12-17T11:21:53.009Z,9.23
2017-12-17T11:24:21.233Z,7.83
2017-12-17T11:26:48.730Z,7.47
2017-12-17T11:29:16.212Z,8.50
2017-12-17T11:31:44.438Z,8.23
2017-12-17T11:34:11.905Z,7.87
2017-12-17T11:36:39.377Z,8.17
2017-12-17T11:39:06.928Z,7.10
2017-12-17T11:41:34.398Z,7.50
2017-12-17T11:44:02.621Z,7.70
2017-12-17T11:46:30.090Z,7.10
2017-12-17T11:48:57.567Z,8.03
2017-12-17T11:51:25.030Z,7.57
2017-12-17T11:53:52.712Z,8.40
2017-12-17T11:56:20.943Z,9.00
2017-12-17T11:58:48.426Z,7.43
2017-12-17T12:01:15.897Z,8.03
2017-12-17T12:03:44.121Z,7.83
2017-12-17T12:06:12.448Z,6.97
2017-12-17T12:08:40.697Z,6.10
2017-12-17T12:11:08.148Z,6.93
2017-12-17T12:13:35.703Z,6.80
2017-12-17T12:16:03.226Z,6.33
2017-12-17T12:18:30.672Z,6.40
2017-12-17T12:20:58.172Z,7.63
2017-12-17T12:23:25.638Z,6.43
2017-12-17T12:25:53.097Z,6.03
2017-12-17T12:28:20.572Z,5.90
2017-12-17T12:30:48.798Z,6.37
2017-12-17T12:33:16.280Z,5.83
2017-12-17T12:35:43.779Z,5.50
2017-12-17T12:38:11.279Z,6.03
2017-12-17T12:40:39.529Z,5.73
2017-12-17T12:43:07.026Z,6.47
2017-12-17T12:45:34.511Z,6.07
2017-12-17T12:48:01.965Z,7.30
2017-12-17T12:50:29.443Z,5.70
2017-12-17T12:52:56.951Z,8.10
2017-12-17T12:55:24.437Z,13.23
2017-12-17T12:57:51.979Z,5.70
2017-12-17T13:00:19.423Z,5.43
2017-12-17T13:02:47.666Z,5.67
2017-12-17T13:05:15.241Z,5.50
2017-12-17T13:07:42.814Z,6.23
2017-12-17T13:10:11.101Z,6.33
2017-12-17T13:12:39.419Z,5.60
2017-12-17T13:15:06.925Z,8.57
2017-12-17T13:17:35.144Z,6.20
2017-12-17T13:20:02.625Z,5.90
2017-12-17T13:22:30.122Z,5.70
2017-12-17T13:24:58.384Z,6.60
2017-12-17T13:27:26.619Z,6.10
2017-12-17T13:29:54.122Z,8.83
2017-12-17T13:32:22.500Z,7.13
2017-12-17T13:34:50.870Z,6.63
2017-12-17T13:37:19.078Z,6.73
2017-12-17T13:39:46.544Z,7.40
2017-12-17T13:42:14.040Z,6.57
2017-12-17T13:44:43.040Z,6.90
2017-12-17T13:47:10.501Z,7.03
2017-12-17T13:49:38.762Z,7.20
2017-12-17T13:52:06.238Z,6.90
2017-12-17T13:54:34.483Z,8.53
2017-12-17T13:57:01.951Z,6.70
2017-12-17T13:59:29.415Z,7.90
2017-12-17T14:01:57.680Z,8.63
2017-12-17T14:04:25.920Z,10.40
2017-12-17T14:06:53.405Z,7.40
2017-12-17T14:09:20.879Z,7.43
2017-12-17T14:11:49.117Z,7.77
2017-12-17T14:14:16.622Z,6.20
2017-12-17T14:16:44.843Z,6.90
2017-12-17T14:19:12.309Z,6.67
2017-12-17T14:21:39.796Z,8.03
2017-12-17T14:24:08.021Z,6.83
2017-12-17T14:26:35.605Z,7.57
2017-12-17T14:29:03.076Z,7.30
2017-12-17T14:31:31.394Z,7.97
2017-12-17T14:33:58.953Z,6.80
2017-12-17T14:36:26.419Z,7.90
2017-12-17T14:39:09.590Z,8.10
2017-12-17T14:41:37.929Z,8.43
2017-12-17T14:44:05.380Z,8.93
2017-12-17T14:46:33.680Z,7.37
2017-12-17T14:49:01.156Z,7.17
2017-12-17T14:51:29.377Z,8.50
2017-12-17T14:53:56.852Z,7.50
2017-12-17T14:56:24.433Z,7.50
2017-12-17T14:58:51.998Z,7.53
2017-12-17T15:01:19.562Z,7.40
2017-12-17T15:03:47.799Z,7.20
2017-12-17T15:06:15.302Z,7.77
2017-12-17T15:08:43.659Z,12.57
2017-12-17T15:11:11.102Z,6.20
2017-12-17T15:13:38.568Z,7.27
2017-12-17T15:16:06.045Z,7.90
2017-12-17T15:18:34.251Z,9.20
2017-12-17T15:21:01.766Z,7.10
2017-12-17T15:23:29.984Z,8.03
2017-12-17T15:25:57.430Z,8.13
2017-12-17T15:28:24.923Z,6.90
2017-12-17T15:30:52.409Z,11.67
2017-12-17T15:33:20.643Z,7.20
2017-12-17T15:35:48.142Z,6.97
2017-12-17T15:38:16.446Z,9.00
2017-12-17T15:40:43.929Z,7.53
2017-12-17T15:43:11.459Z,7.70
2017-12-17T15:45:39.019Z,8.30
2017-12-17T15:48:06.482Z,6.90
2017-12-17T15:50:33.953Z,6.27
2017-12-17T15:53:01.476Z,7.13
2017-12-17T15:55:28.953Z,7.53
2017-12-17T15:57:56.429Z,7.83
2017-12-17T16:00:23.899Z,7.20
2017-12-17T16:02:51.446Z,8.13
2017-12-17T16:05:18.920Z,6.87
2017-12-17T16:07:46.366Z,7.23
2017-12-17T16:10:13.872Z,6.80
2017-12-17T16:12:41.340Z,7.03
2017-12-17T16:15:08.870Z,6.40
2017-12-17T16:17:37.124Z,8.60
2017-12-17T16:20:04.584Z,7.60
2017-12-17T16:22:33.692Z,6.27
2017-12-17T16:25:01.908Z,6.80
2017-12-17T16:27:29.400Z,8.40
2017-12-17T16:29:56.856Z,7.20
2017-12-17T16:32:25.152Z,7.63
2017-12-17T16:34:52.589Z,7.10
2017-12-17T16:37:20.873Z,7.43
2017-12-17T16:39:49.102Z,7.33
2017-12-17T16:42:16.702Z,7.53
2017-12-17T16:44:44.167Z,8.50
2017-12-17T16:47:12.392Z,9.83
2017-12-17T16:49:39.897Z,7.80
2017-12-17T16:52:08.253Z,6.97
2017-12-17T16:54:35.717Z,8.33
2017-12-17T16:57:03.968Z,9.00
2017-12-17T16:59:32.442Z,7.70
2017-12-17T17:02:00.029Z,7.50
2017-12-17T17:04:28.296Z,10.30
2017-12-17T17:06:55.783Z,8.60
2017-12-17T17:09:23.267Z,9.00
2017-12-17T17:11:50.781Z,9.30
2017-12-17T17:14:19.040Z,8.07
2017-12-17T17:16:46.523Z,7.40
2017-12-17T17:19:14.100Z,8.13
2017-12-17T17:21:41.558Z,9.20
2017-12-17T17:24:09.065Z,8.30
2017-12-17T17:26:36.566Z,8.77
2017-12-17T17:29:04.035Z,9.00
2017-12-17T17:31:31.517Z,9.30
2017-12-17T17:33:58.988Z,7.40
2017-12-17T17:36:26.449Z,7.40
2017-12-17T17:38:53.907Z,7.70
2017-12-17T17:41:22.134Z,9.70
2017-12-17T17:43:49.719Z,7.70
2017-12-17T17:46:17.176Z,7.00
2017-12-17T17:48:44.646Z,7.43
2017-12-17T17:51:12.192Z,7.50
2017-12-17T17:53:39.660Z,7.00
2017-12-17T17:56:07.217Z,6.83
2017-12-17T17:58:35.475Z,8.10
2017-12-17T18:01:03.744Z,9.03
2017-12-17T18:03:31.191Z,7.83
2017-12-17T18:05:58.701Z,8.73
2017-12-17T18:08:26.916Z,8.70
2017-12-17T18:10:54.396Z,9.73
2017-12-17T18:13:21.859Z,8.83
2017-12-17T18:15:49.417Z,7.83
2017-12-17T18:18:16.965Z,7.33
2017-12-17T18:20:44.447Z,7.83
2017-12-17T18:23:12.701Z,10.60
2017-12-17T18:25:40.250Z,8.80
2017-12-17T18:28:07.728Z,7.63
2017-12-17T18:30:35.977Z,7.33
2017-12-17T18:33:03.450Z,7.60
2017-12-17T18:35:30.959Z,9.20
2017-12-17T18:37:58.438Z,8.27
2017-12-17T18:40:25.930Z,7.90
2017-12-17T18:42:54.169Z,6.53
2017-12-17T18:45:21.659Z,8.03
2017-12-17T18:47:49.887Z,7.17
2017-12-17T18:50:17.368Z,7.87
2017-12-17T18:52:44.854Z,8.03
2017-12-17T18:55:13.078Z,8.90
2017-12-17T18:57:40.537Z,8.10
2017-12-17T19:00:08.026Z,8.23
2017-12-17T19:02:36.247Z,7.63
2017-12-17T19:05:03.757Z,8.23
2017-12-17T19:07:31.252Z,9.03
2017-12-17T19:09:58.722Z,7.50
2017-12-17T19:12:26.196Z,10.13
2017-12-17T19:14:53.643Z,7.73
2017-12-17T19:17:21.115Z,10.63
2017-12-17T19:19:48.585Z,8.73
2017-12-17T19:22:16.857Z,8.90
2017-12-17T19:24:44.318Z,9.43
2017-12-17T19:27:12.549Z,9.27
2017-12-17T19:29:40.012Z,8.00
2017-12-17T19:32:07.599Z,8.73
2017-12-17T19:34:35.950Z,8.70
2017-12-17T19:37:03.443Z,7.30
2017-12-17T19:39:31.705Z,7.23
2017-12-17T19:41:59.162Z,8.87
2017-12-17T19:44:26.639Z,8.50
2017-12-17T19:46:54.880Z,8.73
2017-12-17T19:49:22.366Z,8.10
2017-12-17T19:51:50.605Z,7.80
2017-12-17T19:54:18.100Z,9.70
2017-12-17T19:56:46.342Z,6.93
2017-12-17T19:59:13.815Z,8.73
2017-12-17T20:01:41.620Z,8.33
2017-12-17T20:04:09.113Z,9.63
2017-12-17T20:06:36.574Z,8.30
2017-12-17T20:09:04.294Z,8.13
2017-12-17T20:11:31.813Z,8.03
2017-12-17T20:14:00.087Z,8.77
2017-12-17T20:16:28.380Z,8.00
2017-12-17T20:18:55.794Z,8.53
2017-12-17T20:21:23.270Z,9.07
2017-12-17T20:23:51.496Z,10.13
2017-12-17T20:26:19.450Z,9.17
2017-12-17T20:28:46.948Z,11.13
2017-12-17T20:31:14.412Z,9.60
2017-12-17T20:33:41.903Z,9.67
2017-12-17T20:36:09.364Z,9.30
2017-12-17T20:38:36.853Z,9.70
2017-12-17T20:41:04.317Z,10.33
2017-12-17T20:43:31.816Z,10.10
2017-12-17T20:46:00.073Z,9.47
2017-12-17T20:48:27.586Z,10.73
2017-12-17T20:50:55.065Z,9.73
2017-12-17T20:53:22.561Z,10.43
2017-12-17T20:55:50.795Z,10.07
2017-12-17T20:58:18.429Z,10.27
2017-12-17T21:00:45.929Z,11.57
2017-12-17T21:03:13.400Z,9.20
2017-12-17T21:05:41.650Z,10.87
2017-12-17T21:08:09.159Z,11.10
2017-12-17T21:10:36.622Z,9.80
2017-12-17T21:13:04.134Z,10.70
2017-12-17T21:15:32.380Z,11.10
2017-12-17T21:17:59.857Z,9.80
2017-12-17T21:20:27.462Z,11.40
2017-12-17T21:22:54.989Z,11.87
2017-12-17T21:25:23.255Z,10.30
2017-12-17T21:27:51.477Z,9.53
2017-12-17T21:30:18.937Z,9.40
2017-12-17T21:32:46.413Z,8.70
2017-12-17T21:35:13.885Z,9.50
2017-12-17T21:37:41.366Z,9.00
2017-12-17T21:40:09.601Z,9.90
2017-12-17T21:42:37.056Z,8.87
2017-12-17T21:45:04.576Z,9.00
2017-12-17T21:47:32.026Z,9.93
2017-12-17T21:49:59.481Z,9.47
2017-12-17T21:52:26.980Z,9.50
2017-12-17T21:54:54.562Z,8.10
2017-12-17T21:57:22.807Z,9.87
2017-12-17T21:59:50.280Z,8.23
2017-12-17T22:02:17.748Z,8.17
2017-12-17T22:04:45.988Z,8.23
2017-12-17T22:07:13.461Z,7.70
2017-12-17T22:09:40.929Z,7.43
2017-12-17T22:12:08.470Z,8.60
2017-12-17T22:14:35.962Z,7.60
2017-12-17T22:17:04.189Z,8.90
2017-12-17T22:19:31.652Z,7.87
2017-12-17T22:22:00.104Z,8.30
2017-12-17T22:24:27.554Z,8.50
2017-12-17T22:26:55.063Z,7.00
2017-12-17T22:29:22.599Z,7.17
2017-12-17T22:31:50.170Z,8.27
2017-12-17T22:34:17.642Z,7.90
2017-12-17T22:36:45.862Z,6.73
2017-12-17T22:39:13.357Z,8.40
2017-12-17T22:41:40.927Z,8.50
2017-12-17T22:44:09.142Z,7.57
2017-12-17T22:46:36.625Z,7.97
2017-12-17T22:49:04.085Z,7.87
2017-12-17T22:51:31.573Z,8.23
2017-12-17T22:53:59.819Z,6.80
2017-12-17T22:56:27.267Z,7.90
2017-12-17T22:58:54.757Z,6.60
2017-12-17T23:01:22.994Z,9.90
2017-12-17T23:03:50.488Z,7.20
2017-12-17T23:06:18.699Z,6.87
2017-12-17T23:08:46.209Z,8.03
2017-12-17T23:11:14.472Z,7.93
2017-12-17T23:13:41.941Z,8.07
2017-12-17T23:16:10.232Z,7.40
2017-12-17T23:18:38.477Z,8.20
2017-12-17T23:21:06.053Z,7.30
2017-12-17T23:23:34.279Z,6.53
2017-12-17T23:26:01.763Z,7.23
2017-12-17T23:28:29.228Z,7.47
2017-12-17T23:30:56.694Z,7.73
2017-12-17T23:33:24.965Z,6.47
2017-12-17T23:35:53.184Z,6.77
2017-12-17T23:38:20.665Z,7.20
2017-12-17T23:40:48.124Z,6.80
2017-12-17T23:43:15.593Z,7.90
2017-12-17T23:45:43.054Z,7.20
2017-12-17T23:48:10.503Z,7.57
2017-12-17T23:50:37.996Z,7.57
2017-12-17T23:53:05.524Z,6.33
2017-12-17T23:55:33.067Z,6.70
2017-12-17T23:58:00.561Z,6.43
